createdAt,value
2023-08-31T00:05:25.546Z,14.36
2023-08-31T00:21:08.096Z,14.41
2023-08-31T00:36:50.667Z,14.4
2023-08-31T00:52:33.141Z,14.39
2023-08-31T01:08:15.745Z,14.35
2023-08-31T01:23:57.646Z,14.31
2023-08-31T01:39:40.149Z,14.33
2023-08-31T01:55:22.131Z,14.42
2023-08-31T02:11:03.912Z,14.44
2023-08-31T02:26:46.559Z,14.3
2023-08-31T02:42:28.828Z,14.19
2023-08-31T02:58:11.646Z,13.92
2023-08-31T03:13:54.243Z,13.58
2023-08-31T03:29:37.186Z,13.41
2023-08-31T03:30:24.365Z,13.55
2023-08-31T03:46:06.599Z,13.39
2023-08-31T04:01:48.710Z,13.38
2023-08-31T04:17:31.417Z,13.4
2023-08-31T04:33:14.192Z,13.41
2023-08-31T04:48:56.757Z,13.45
2023-08-31T05:04:38.951Z,13.57
2023-08-31T05:20:21.725Z,13.72
2023-08-31T05:36:03.842Z,13.9
2023-08-31T05:51:45.951Z,13.91
2023-08-31T06:07:28.181Z,13.95
2023-08-31T06:23:10.905Z,14.15
2023-08-31T06:38:53.759Z,14.23
2023-08-31T06:54:36.537Z,14.57
2023-08-31T07:26:02.155Z,14.6
2023-08-31T07:41:44.867Z,14.64
2023-08-31T07:57:27.207Z,15.17
2023-08-31T08:13:09.379Z,15.61
2023-08-31T08:28:52.414Z,15.55
2023-08-31T08:44:35.277Z,16.7
2023-08-31T09:00:17.983Z,17.95
2023-08-31T09:16:00.168Z,19.16
2023-08-31T09:31:42.706Z,20.06
2023-08-31T09:47:24.861Z,19.16
2023-08-31T10:03:07.178Z,17.71
2023-08-31T10:18:49.472Z,20.16
2023-08-31T10:34:32.396Z,20.95
2023-08-31T10:50:14.673Z,19.42
2023-08-31T11:05:57.507Z,16.17
2023-08-31T11:21:40.032Z,15.07
2023-08-31T11:37:22.079Z,18.07
2023-08-31T11:53:03.886Z,18.16
2023-08-31T12:08:48.100Z,21.7
2023-08-31T12:24:28.795Z,22.99
2023-08-31T12:40:11.736Z,20.1
2023-08-31T12:55:54.254Z,18.91
2023-08-31T13:11:37.273Z,17.94
2023-08-31T13:27:19.966Z,21.36
2023-08-31T13:43:02.110Z,21.73
2023-08-31T13:58:44.510Z,20.44
2023-08-31T14:14:26.965Z,17.62
2023-08-31T14:30:09.494Z,15.44
2023-08-31T14:45:51.776Z,17.91
2023-08-31T15:01:34.174Z,18.57
2023-08-31T15:17:17.017Z,20.52
2023-08-31T15:32:58.889Z,20.07
2023-08-31T15:48:41.002Z,19
2023-08-31T16:04:23.425Z,18.79
2023-08-31T16:20:05.535Z,17.57
2023-08-31T16:35:47.892Z,16.81
2023-08-31T16:51:30.952Z,16.37
2023-08-31T17:07:13.113Z,15.88
2023-08-31T17:22:56.250Z,14.89
2023-08-31T17:38:39.115Z,13.75
2023-08-31T17:54:21.098Z,13.03
2023-08-31T18:10:03.038Z,12.72
2023-08-31T18:25:45.428Z,12.32
2023-08-31T18:41:28.008Z,12.03
2023-08-31T18:57:10.448Z,11.83
2023-08-31T19:12:53.288Z,11.61
2023-08-31T19:28:36.099Z,11.46
2023-08-31T19:44:19.087Z,11.39
2023-08-31T20:00:01.765Z,11.35
2023-08-31T20:15:44.160Z,11.36
2023-08-31T20:31:26.046Z,11.4
2023-08-31T20:47:09.071Z,11.43
2023-08-31T21:02:51.771Z,11.4
2023-08-31T21:18:34.212Z,11.37
2023-08-31T21:34:16.269Z,11.29
2023-08-31T21:49:58.984Z,11.31
2023-08-31T22:05:41.181Z,11.34
2023-08-31T22:21:23.176Z,11.41
2023-08-31T22:37:06.280Z,11.43
2023-08-31T22:52:48.618Z,11.31
2023-08-31T23:08:31.162Z,11.17
2023-08-31T23:24:14.140Z,11.04
2023-08-31T23:39:57.033Z,10.94
2023-08-31T23:55:39.212Z,10.83
